Time;durP1;ratioP1;P1;durP2;ratioP2;P2;SDS_P1;SDS_P2;PMS_P1;PMS_P2;Temp;Humidity;BMP_temperature;BMP_pressure;BME280_temperature;BME280_humidity;BME280_pressure;Samples;Min_cycle;Max_cycle;Signal;HPM_P1;HPM_P2
2021/07/25 00:01:55;;;;;;;83.38;52.55;;;;;;;;;;5022394;28;20201;-70
2021/07/25 00:04:20;;;;;;;82.82;54.47;;;;;;;;;;5026899;28;20188;-71
2021/07/25 00:06:45;;;;;;;89.07;56.33;;;;;;;;;;5017618;28;20215;-72
2021/07/25 00:09:11;;;;;;;78.55;53.13;;;;;;;;;;5026512;28;20174;-71
2021/07/25 00:11:36;;;;;;;88.63;55.95;;;;;;;;;;5017694;28;20251;-70
2021/07/25 00:14:03;;;;;;;85.57;55.72;;;;;;;;;;5017173;28;20231;-71
2021/07/25 00:16:30;;;;;;;86.65;56.17;;;;;;;;;;5009930;28;20265;-71
2021/07/25 00:18:56;;;;;;;87.30;56.58;;;;;;;;;;5022687;28;20178;-71
2021/07/25 00:21:21;;;;;;;76.78;50.40;;;;;;;;;;5014105;28;20320;-70
2021/07/25 00:23:49;;;;;;;90.38;56.45;;;;;;;;;;5036064;28;20200;-75
2021/07/25 00:26:17;;;;;;;81.95;52.13;;;;;;;;;;5013092;28;20565;-68
2021/07/25 00:28:43;;;;;;;76.30;49.53;;;;;;;;;;5026950;28;20178;-69
2021/07/25 00:31:09;;;;;;;75.57;51.33;;;;;;;;;;5013456;28;20540;-70
2021/07/25 00:33:35;;;;;;;73.32;47.83;;;;;;;;;;5022292;28;20190;-70
2021/07/25 00:36:02;;;;;;;70.13;46.88;;;;;;;;;;5018113;28;20186;-71
2021/07/25 00:38:28;;;;;;;64.55;43.72;;;;;;;;;;5022419;28;20190;-69
2021/07/25 00:40:59;;;;;;;61.92;44.38;;;;;;;;;;5018337;28;20232;-71
2021/07/25 00:43:29;;;;;;;55.70;39.13;;;;;;;;;;5024971;28;20212;-71
2021/07/25 00:45:58;;;;;;;59.10;42.17;;;;;;;;;;5036509;28;20727;-71
2021/07/25 00:48:25;;;;;;;53.80;39.05;;;;;;;;;;5021273;28;20269;-70
2021/07/25 00:50:55;;;;;;;55.80;39.22;;;;;;;;;;5039379;28;20558;-70
2021/07/25 00:53:21;;;;;;;56.10;39.47;;;;;;;;;;5014704;28;20201;-70
2021/07/25 00:55:47;;;;;;;59.28;40.78;;;;;;;;;;5023904;28;20257;-71
2021/07/25 00:58:13;;;;;;;53.80;39.10;;;;;;;;;;5015927;28;20186;-68
2021/07/25 01:00:39;;;;;;;51.60;37.45;;;;;;;;;;5021215;28;20680;-70
2021/07/25 01:03:25;;;;;;;54.20;39.05;;;;;;;;;;5034448;28;20194;-71
2021/07/25 01:06:26;;;;;;;50.35;37.42;;;;;;;;;;5022610;28;20213;-70
2021/07/25 01:09:17;;;;;;;50.17;37.90;;;;;;;;;;5018747;28;20179;-71
2021/07/25 01:11:49;;;;;;;54.80;39.10;;;;;;;;;;5026258;28;20182;-70
2021/07/25 01:14:21;;;;;;;58.22;38.63;;;;;;;;;;5015003;28;20645;-71
2021/07/25 01:16:47;;;;;;;50.90;37.47;;;;;;;;;;5025524;28;20181;-69
2021/07/25 01:19:12;;;;;;;54.55;39.20;;;;;;;;;;5025020;28;20191;-71
2021/07/25 01:21:38;;;;;;;59.70;39.92;;;;;;;;;;5026788;28;20174;-70
2021/07/25 01:24:03;;;;;;;60.58;40.25;;;;;;;;;;5013429;28;20320;-70
2021/07/25 01:26:34;;;;;;;55.45;40.05;;;;;;;;;;5019670;28;20195;-70
2021/07/25 01:29:03;;;;;;;57.70;42.15;;;;;;;;;;5016092;28;20194;-70
2021/07/25 01:31:33;;;;;;;63.55;42.13;;;;;;;;;;5020762;28;20638;-71
2021/07/25 01:34:00;;;;;;;61.40;41.03;;;;;;;;;;5019399;28;20205;-70
2021/07/25 01:36:26;;;;;;;59.30;42.03;;;;;;;;;;5019817;28;20190;-68
2021/07/25 01:38:55;;;;;;;52.85;36.22;;;;;;;;;;5019219;28;20194;-69
2021/07/25 01:41:20;;;;;;;50.70;38.25;;;;;;;;;;5014268;28;20262;-69
2021/07/25 01:43:48;;;;;;;55.35;37.92;;;;;;;;;;5019581;28;20244;-69
2021/07/25 01:46:14;;;;;;;60.72;43.53;;;;;;;;;;5016001;28;20220;-69
2021/07/25 01:48:39;;;;;;;53.72;38.63;;;;;;;;;;5022598;28;20178;-68
2021/07/25 01:51:05;;;;;;;64.95;46.95;;;;;;;;;;5018299;28;20189;-69
2021/07/25 01:53:32;;;;;;;66.45;46.67;;;;;;;;;;5025869;28;20527;-69
2021/07/25 01:55:57;;;;;;;69.70;49.25;;;;;;;;;;5023101;28;20214;-69
2021/07/25 01:58:23;;;;;;;64.03;44.47;;;;;;;;;;5026504;28;20187;-68
2021/07/25 02:00:49;;;;;;;79.20;51.22;;;;;;;;;;5022409;28;20229;-70
2021/07/25 02:03:25;;;;;;;77.15;50.03;;;;;;;;;;5025996;28;20190;-70
2021/07/25 02:05:51;;;;;;;72.50;49.78;;;;;;;;;;5023050;28;20209;-69
2021/07/25 02:08:18;;;;;;;60.95;43.85;;;;;;;;;;5022255;28;20562;-69
2021/07/25 02:10:45;;;;;;;75.50;50.78;;;;;;;;;;5029535;28;20183;-69
2021/07/25 02:13:12;;;;;;;67.13;45.78;;;;;;;;;;5016150;28;20186;-69
2021/07/25 02:15:37;;;;;;;83.10;54.72;;;;;;;;;;5032289;28;20541;-69
2021/07/25 02:18:02;;;;;;;77.95;51.55;;;;;;;;;;5020983;28;20268;-69
2021/07/25 02:20:28;;;;;;;83.63;54.10;;;;;;;;;;5022394;28;20182;-68
2021/07/25 02:22:53;;;;;;;73.35;51.78;;;;;;;;;;5020561;28;20650;-69
2021/07/25 02:25:18;;;;;;;88.25;57.10;;;;;;;;;;5020919;28;20193;-69
2021/07/25 02:27:44;;;;;;;87.85;55.88;;;;;;;;;;5014595;28;20187;-69
2021/07/25 02:30:09;;;;;;;87.93;56.47;;;;;;;;;;5026954;28;20627;-70
2021/07/25 02:32:35;;;;;;;84.97;55.85;;;;;;;;;;5017743;28;20253;-70
2021/07/25 02:35:00;;;;;;;88.85;59.13;;;;;;;;;;5021759;28;20189;-70
2021/07/25 02:37:26;;;;;;;80.20;54.75;;;;;;;;;;5028872;28;20185;-70
2021/07/25 02:39:51;;;;;;;92.28;59.33;;;;;;;;;;5024157;28;20183;-70
2021/07/25 02:42:16;;;;;;;86.85;57.72;;;;;;;;;;5024292;28;20189;-70
2021/07/25 02:44:42;;;;;;;83.03;54.88;;;;;;;;;;5021773;28;20197;-68
2021/07/25 02:47:07;;;;;;;94.57;58.50;;;;;;;;;;5024663;28;20230;-70
2021/07/25 02:49:32;;;;;;;95.93;59.97;;;;;;;;;;5014779;28;21119;-69
2021/07/25 02:52:01;;;;;;;95.78;61.15;;;;;;;;;;5024113;28;20605;-70
2021/07/25 02:54:27;;;;;;;80.07;54.78;;;;;;;;;;5024006;28;20209;-68
2021/07/25 02:56:52;;;;;;;99.82;59.97;;;;;;;;;;5020977;28;20764;-69
2021/07/25 02:59:17;;;;;;;94.63;57.53;;;;;;;;;;5021194;28;20681;-70
2021/07/25 03:01:43;;;;;;;70.10;48.80;;;;;;;;;;5019976;28;20248;-68
2021/07/25 03:04:09;;;;;;;80.10;52.97;;;;;;;;;;5022591;28;20289;-69
2021/07/25 03:06:34;;;;;;;78.88;51.45;;;;;;;;;;5022332;28;20210;-68
2021/07/25 03:08:59;;;;;;;69.28;47.83;;;;;;;;;;5014646;28;20179;-67
2021/07/25 03:11:25;;;;;;;75.88;52.00;;;;;;;;;;5022671;28;20517;-67
2021/07/25 03:13:50;;;;;;;93.57;58.42;;;;;;;;;;5019907;28;20297;-69
2021/07/25 03:16:15;;;;;;;91.85;58.67;;;;;;;;;;5011466;28;20232;-68
2021/07/25 03:18:41;;;;;;;96.50;62.50;;;;;;;;;;5031182;28;20269;-69
2021/07/25 03:21:06;;;;;;;101.10;62.20;;;;;;;;;;5012606;28;20186;-68
2021/07/25 03:23:33;;;;;;;96.78;62.47;;;;;;;;;;5032003;28;20267;-68
2021/07/25 03:25:58;;;;;;;104.38;61.20;;;;;;;;;;5014449;28;20218;-69
2021/07/25 03:28:23;;;;;;;100.13;64.80;;;;;;;;;;5031955;28;20559;-68
2021/07/25 03:30:50;;;;;;;103.45;65.40;;;;;;;;;;5014889;28;20186;-68
2021/07/25 03:33:16;;;;;;;100.68;65.15;;;;;;;;;;5029437;28;20186;-69
2021/07/25 03:35:42;;;;;;;91.88;60.47;;;;;;;;;;5016436;28;20703;-69
2021/07/25 03:38:07;;;;;;;99.65;61.33;;;;;;;;;;5039143;28;20551;-68
2021/07/25 03:40:33;;;;;;;97.25;61.83;;;;;;;;;;5014629;28;20699;-69
2021/07/25 03:42:59;;;;;;;101.90;61.40;;;;;;;;;;5024928;28;20204;-69
2021/07/25 03:45:24;;;;;;;105.95;64.95;;;;;;;;;;5017919;28;20200;-69
2021/07/25 03:47:50;;;;;;;97.45;62.20;;;;;;;;;;5021964;28;20190;-68
2021/07/25 03:50:15;;;;;;;84.45;54.75;;;;;;;;;;5021316;28;20197;-68
2021/07/25 03:52:40;;;;;;;91.07;59.00;;;;;;;;;;5019064;28;20190;-68
2021/07/25 03:55:07;;;;;;;82.47;55.45;;;;;;;;;;5022034;28;20222;-68
2021/07/25 03:57:34;;;;;;;93.65;60.22;;;;;;;;;;5014361;28;20190;-69
2021/07/25 03:59:59;;;;;;;94.40;62.22;;;;;;;;;;5020829;28;20333;-69
2021/07/25 04:02:24;;;;;;;95.65;61.53;;;;;;;;;;5023256;28;20284;-69
2021/07/25 04:04:50;;;;;;;90.15;57.63;;;;;;;;;;5016484;28;20208;-69
2021/07/25 04:07:15;;;;;;;99.40;63.13;;;;;;;;;;5025803;28;20210;-69
2021/07/25 04:09:40;;;;;;;97.38;62.00;;;;;;;;;;5023745;28;20281;-68
2021/07/25 04:12:06;;;;;;;98.75;62.05;;;;;;;;;;5011527;28;20178;-67
2021/07/25 04:14:32;;;;;;;100.95;61.72;;;;;;;;;;5020108;28;20653;-68
2021/07/25 04:16:57;;;;;;;96.68;62.13;;;;;;;;;;5031929;28;20231;-69
2021/07/25 04:19:22;;;;;;;90.15;56.15;;;;;;;;;;5011452;28;20194;-69
2021/07/25 04:21:48;;;;;;;93.85;60.22;;;;;;;;;;5031309;28;20182;-68
2021/07/25 04:24:13;;;;;;;93.03;61.03;;;;;;;;;;5014445;28;20285;-68
2021/07/25 04:26:39;;;;;;;90.43;60.47;;;;;;;;;;5021807;28;20284;-68
2021/07/25 04:29:04;;;;;;;100.22;62.60;;;;;;;;;;5013234;28;20181;-69
2021/07/25 04:31:30;;;;;;;77.93;51.78;;;;;;;;;;5028349;28;20189;-68
2021/07/25 04:33:55;;;;;;;94.78;60.33;;;;;;;;;;5014032;28;20182;-67
2021/07/25 04:36:25;;;;;;;83.70;56.50;;;;;;;;;;5029718;28;20182;-67
2021/07/25 04:38:54;;;;;;;92.05;59.13;;;;;;;;;;5014928;28;20213;-69
2021/07/25 04:41:25;;;;;;;80.10;54.60;;;;;;;;;;5022384;28;20637;-68
2021/07/25 04:43:57;;;;;;;93.32;58.95;;;;;;;;;;5018685;28;20208;-67
2021/07/25 04:46:29;;;;;;;90.32;56.78;;;;;;;;;;5024663;28;20242;-68
2021/07/25 04:49:04;;;;;;;86.68;56.33;;;;;;;;;;5014855;28;20390;-68
2021/07/25 04:51:31;;;;;;;84.68;56.17;;;;;;;;;;5025020;28;20182;-69
2021/07/25 04:54:03;;;;;;;84.95;57.85;;;;;;;;;;5022174;28;20208;-68
2021/07/25 04:56:29;;;;;;;83.00;57.35;;;;;;;;;;5020077;28;20709;-69
2021/07/25 04:59:02;;;;;;;90.70;60.08;;;;;;;;;;5027579;28;20193;-69
2021/07/25 05:01:30;;;;;;;88.05;58.63;;;;;;;;;;5009618;28;20186;-68
2021/07/25 05:03:56;;;;;;;81.57;56.22;;;;;;;;;;5025613;28;20284;-69
2021/07/25 05:06:22;;;;;;;71.95;49.63;;;;;;;;;;5006248;28;20297;-68
2021/07/25 05:08:48;;;;;;;83.32;56.22;;;;;;;;;;5027734;28;20186;-69
2021/07/25 05:11:22;;;;;;;70.80;51.42;;;;;;;;;;5040004;28;20284;-68
2021/07/25 05:13:49;;;;;;;74.38;52.05;;;;;;;;;;5027311;28;20226;-68
2021/07/25 05:16:26;;;;;;;75.05;52.47;;;;;;;;;;5008264;28;20182;-68
2021/07/25 05:19:01;;;;;;;70.50;51.17;;;;;;;;;;5024553;28;20269;-68
2021/07/25 05:21:34;;;;;;;65.13;47.50;;;;;;;;;;5009830;28;20256;-67
2021/07/25 05:24:02;;;;;;;79.15;53.38;;;;;;;;;;5024228;28;20182;-67
2021/07/25 05:26:27;;;;;;;69.78;50.53;;;;;;;;;;5010894;28;20349;-69
2021/07/25 05:28:58;;;;;;;67.88;49.22;;;;;;;;;;5028350;28;20217;-68
2021/07/25 05:31:34;;;;;;;67.78;49.47;;;;;;;;;;5010252;28;20618;-69
2021/07/25 05:34:01;;;;;;;72.40;48.90;;;;;;;;;;5030702;28;20185;-68
2021/07/25 05:36:27;;;;;;;62.50;44.50;;;;;;;;;;5014172;28;20578;-68
2021/07/25 05:38:52;;;;;;;61.40;44.78;;;;;;;;;;5018489;28;20185;-68
2021/07/25 05:41:18;;;;;;;67.78;47.30;;;;;;;;;;5030281;28;20563;-68
2021/07/25 05:43:43;;;;;;;63.35;45.95;;;;;;;;;;5026807;28;20182;-68
2021/07/25 05:46:09;;;;;;;63.50;48.95;;;;;;;;;;5019290;28;20565;-68
2021/07/25 05:48:34;;;;;;;69.63;49.58;;;;;;;;;;5020912;28;20197;-67
2021/07/25 05:51:02;;;;;;;67.60;48.97;;;;;;;;;;5021042;28;20198;-67
2021/07/25 05:53:31;;;;;;;65.55;47.67;;;;;;;;;;5023038;28;20680;-67
2021/07/25 05:55:56;;;;;;;64.72;48.05;;;;;;;;;;5019174;28;20249;-68
2021/07/25 05:58:22;;;;;;;42.78;34.60;;;;;;;;;;5021344;28;20279;-67
2021/07/25 06:00:47;;;;;;;61.28;43.67;;;;;;;;;;5018019;28;20265;-68
2021/07/25 06:03:12;;;;;;;60.88;41.80;;;;;;;;;;5015797;28;20185;-68
2021/07/25 06:05:38;;;;;;;60.90;45.17;;;;;;;;;;5021571;28;20181;-67
2021/07/25 06:08:05;;;;;;;56.40;43.47;;;;;;;;;;5016241;28;20243;-68
2021/07/25 06:10:32;;;;;;;50.88;39.10;;;;;;;;;;5036902;28;20288;-71
2021/07/25 06:13:00;;;;;;;53.28;40.85;;;;;;;;;;5023010;28;20189;-73
2021/07/25 06:15:28;;;;;;;47.25;36.47;;;;;;;;;;5028842;28;20197;-67
2021/07/25 06:17:53;;;;;;;54.40;40.63;;;;;;;;;;5030097;28;20524;-68
2021/07/25 06:20:19;;;;;;;55.53;39.47;;;;;;;;;;5012186;28;20197;-68
2021/07/25 06:22:53;;;;;;;53.20;40.42;;;;;;;;;;5029894;28;20197;-74
2021/07/25 06:25:21;;;;;;;44.97;36.58;;;;;;;;;;5013910;28;20332;-71
2021/07/25 06:27:47;;;;;;;48.35;36.83;;;;;;;;;;5023749;28;20268;-68
2021/07/25 06:30:13;;;;;;;52.08;39.72;;;;;;;;;;5015397;28;20641;-68
2021/07/25 06:32:59;;;;;;;50.20;38.92;;;;;;;;;;5025661;28;20185;-68
2021/07/25 06:35:34;;;;;;;54.17;39.95;;;;;;;;;;5018230;28;20272;-68
2021/07/25 06:38:01;;;;;;;48.72;38.00;;;;;;;;;;5025447;28;20293;-68
2021/07/25 06:40:28;;;;;;;53.13;39.15;;;;;;;;;;5017765;28;20260;-68
2021/07/25 06:42:54;;;;;;;45.60;35.22;;;;;;;;;;5023922;28;20213;-74
2021/07/25 06:45:20;;;;;;;44.25;35.13;;;;;;;;;;5018137;28;20276;-68
2021/07/25 06:47:47;;;;;;;41.40;32.58;;;;;;;;;;5025263;28;20278;-68
2021/07/25 06:50:12;;;;;;;40.10;30.95;;;;;;;;;;5021269;28;20194;-68
2021/07/25 06:52:39;;;;;;;42.00;32.35;;;;;;;;;;5024807;28;20459;-68
2021/07/25 06:55:07;;;;;;;41.13;31.38;;;;;;;;;;5022275;28;20519;-69
2021/07/25 06:57:32;;;;;;;41.15;33.05;;;;;;;;;;5023928;28;20672;-69
2021/07/25 06:59:57;;;;;;;39.97;31.42;;;;;;;;;;5027190;28;20240;-69
2021/07/25 07:02:23;;;;;;;35.70;28.23;;;;;;;;;;5014074;28;20182;-69
2021/07/25 07:04:48;;;;;;;35.58;28.75;;;;;;;;;;5040966;28;20545;-72
2021/07/25 07:07:13;;;;;;;33.45;26.55;;;;;;;;;;5015959;28;20210;-71
2021/07/25 07:09:39;;;;;;;33.70;26.80;;;;;;;;;;5028942;28;20588;-69
2021/07/25 07:12:04;;;;;;;33.72;27.45;;;;;;;;;;5013247;28;20217;-72
2021/07/25 07:14:29;;;;;;;36.65;27.95;;;;;;;;;;5029488;28;20186;-69
2021/07/25 07:16:55;;;;;;;32.97;25.50;;;;;;;;;;5016459;28;20276;-68
2021/07/25 07:19:20;;;;;;;32.40;25.40;;;;;;;;;;5024621;28;20186;-72
2021/07/25 07:21:45;;;;;;;29.48;23.08;;;;;;;;;;5020043;28;20178;-68
2021/07/25 07:24:11;;;;;;;30.35;25.08;;;;;;;;;;5020752;28;20642;-72
2021/07/25 07:26:36;;;;;;;31.83;25.17;;;;;;;;;;5020744;28;20217;-72
2021/07/25 07:29:01;;;;;;;34.42;25.67;;;;;;;;;;5025104;28;20197;-68
2021/07/25 07:31:27;;;;;;;31.10;25.25;;;;;;;;;;5027150;28;20194;-67
2021/07/25 07:33:54;;;;;;;34.65;24.95;;;;;;;;;;5018472;28;20190;-68
2021/07/25 07:36:19;;;;;;;30.88;23.73;;;;;;;;;;5019572;28;20190;-69
2021/07/25 07:38:44;;;;;;;28.10;22.40;;;;;;;;;;5011003;28;20638;-68
2021/07/25 07:41:10;;;;;;;31.13;22.60;;;;;;;;;;5028358;28;20654;-71
2021/07/25 07:43:35;;;;;;;25.20;20.65;;;;;;;;;;5016469;28;20182;-73
2021/07/25 07:46:00;;;;;;;25.38;20.42;;;;;;;;;;5044136;28;20252;-67
2021/07/25 07:48:26;;;;;;;22.70;16.48;;;;;;;;;;5013792;28;20272;-68
2021/07/25 07:50:51;;;;;;;21.70;16.50;;;;;;;;;;5024655;28;20185;-68
2021/07/25 07:53:19;;;;;;;20.50;16.17;;;;;;;;;;5013332;28;20654;-68
2021/07/25 07:55:45;;;;;;;19.42;15.32;;;;;;;;;;5025059;28;20226;-68
2021/07/25 07:58:10;;;;;;;17.50;14.02;;;;;;;;;;5033341;28;20436;-68
2021/07/25 08:00:35;;;;;;;17.50;12.70;;;;;;;;;;5016839;28;20272;-71
2021/07/25 08:03:01;;;;;;;14.25;11.80;;;;;;;;;;5031995;28;20186;-68
2021/07/25 08:05:26;;;;;;;19.00;12.40;;;;;;;;;;5012397;28;20221;-68
2021/07/25 08:07:51;;;;;;;13.55;11.73;;;;;;;;;;5033584;28;20193;-68
2021/07/25 08:10:17;;;;;;;14.57;11.77;;;;;;;;;;5014487;28;20538;-67
2021/07/25 08:12:42;;;;;;;15.15;11.27;;;;;;;;;;5028437;28;20185;-68
2021/07/25 08:15:09;;;;;;;13.15;10.70;;;;;;;;;;5009032;28;20183;-68
2021/07/25 08:17:35;;;;;;;13.15;9.95;;;;;;;;;;5022609;28;20178;-68
2021/07/25 08:20:01;;;;;;;12.10;10.15;;;;;;;;;;5012479;28;20882;-68
2021/07/25 08:22:26;;;;;;;12.93;9.15;;;;;;;;;;5030186;28;20185;-67
2021/07/25 08:24:52;;;;;;;13.63;10.18;;;;;;;;;;5011872;28;20277;-69
2021/07/25 08:27:18;;;;;;;12.00;9.32;;;;;;;;;;5030369;28;20285;-69
2021/07/25 08:29:43;;;;;;;11.80;9.63;;;;;;;;;;5015816;28;20190;-73
2021/07/25 08:32:10;;;;;;;11.27;8.63;;;;;;;;;;5028140;28;20177;-69
2021/07/25 08:34:36;;;;;;;10.23;8.90;;;;;;;;;;5023524;28;20192;-67
2021/07/25 08:37:01;;;;;;;13.85;9.50;;;;;;;;;;5022793;28;20190;-69
2021/07/25 08:39:27;;;;;;;13.07;10.77;;;;;;;;;;5021911;28;20195;-68
2021/07/25 08:42:12;;;;;;;14.00;10.85;;;;;;;;;;5020340;28;20190;-71
2021/07/25 08:44:50;;;;;;;13.60;9.48;;;;;;;;;;5018455;28;20240;-69
2021/07/25 08:47:23;;;;;;;11.68;9.27;;;;;;;;;;5017906;28;20208;-70
2021/07/25 08:49:52;;;;;;;11.68;9.30;;;;;;;;;;5035178;28;20685;-72
2021/07/25 08:52:20;;;;;;;13.27;8.65;;;;;;;;;;5015758;28;20724;-72
2021/07/25 08:54:47;;;;;;;8.70;7.28;;;;;;;;;;5020577;28;20245;-72
2021/07/25 08:57:16;;;;;;;12.43;9.10;;;;;;;;;;5015137;28;20554;-69
2021/07/25 08:59:43;;;;;;;9.18;7.78;;;;;;;;;;5019193;28;20641;-69
2021/07/25 09:02:17;;;;;;;12.05;8.60;;;;;;;;;;5015828;28;20221;-72
2021/07/25 09:04:43;;;;;;;10.45;7.55;;;;;;;;;;5019763;28;20194;-71
2021/07/25 09:07:09;;;;;;;10.98;8.65;;;;;;;;;;5012766;28;20202;-67
2021/07/25 09:09:35;;;;;;;12.20;8.95;;;;;;;;;;5023562;28;20225;-68
2021/07/25 09:12:00;;;;;;;10.80;8.15;;;;;;;;;;5007205;28;20190;-69
2021/07/25 09:14:26;;;;;;;10.60;7.72;;;;;;;;;;5021277;28;20189;-68
2021/07/25 09:16:51;;;;;;;11.52;8.50;;;;;;;;;;5005665;28;20187;-69
2021/07/25 09:19:17;;;;;;;9.38;7.57;;;;;;;;;;5022053;28;20248;-68
2021/07/25 09:21:50;;;;;;;11.52;8.23;;;;;;;;;;5024252;28;20208;-72
2021/07/25 09:24:20;;;;;;;11.68;9.02;;;;;;;;;;5029249;28;20189;-69
2021/07/25 09:27:05;;;;;;;9.93;8.25;;;;;;;;;;5023730;28;20249;-69
2021/07/25 09:29:35;;;;;;;8.50;7.47;;;;;;;;;;5031627;28;20292;-70
2021/07/25 09:32:17;;;;;;;7.50;6.07;;;;;;;;;;5025345;28;21026;-67
2021/07/25 09:34:47;;;;;;;7.72;6.40;;;;;;;;;;5015802;28;20189;-70
2021/07/25 09:37:23;;;;;;;9.73;6.40;;;;;;;;;;5017072;28;20672;-70
2021/07/25 09:39:53;;;;;;;8.07;6.53;;;;;;;;;;5019325;28;20201;-69
2021/07/25 09:42:30;;;;;;;12.20;6.10;;;;;;;;;;5019092;28;21019;-71
2021/07/25 09:45:00;;;;;;;8.32;5.53;;;;;;;;;;5021215;28;20189;-67
2021/07/25 09:47:37;;;;;;;5.78;4.65;;;;;;;;;;5020465;28;20217;-68
2021/07/25 09:50:05;;;;;;;9.15;4.90;;;;;;;;;;5019798;28;20291;-68
2021/07/25 09:52:37;;;;;;;5.05;4.45;;;;;;;;;;5023123;28;20193;-68
2021/07/25 09:55:08;;;;;;;5.18;3.75;;;;;;;;;;5017302;28;20302;-68
2021/07/25 09:57:37;;;;;;;5.13;4.28;;;;;;;;;;5021015;28;20765;-67
2021/07/25 10:00:08;;;;;;;10.10;4.60;;;;;;;;;;5017060;28;20218;-67
2021/07/25 10:02:45;;;;;;;8.98;5.32;;;;;;;;;;5019761;28;20218;-69
2021/07/25 10:05:16;;;;;;;7.05;4.78;;;;;;;;;;5013422;28;20328;-69
2021/07/25 10:07:43;;;;;;;6.80;4.47;;;;;;;;;;5023201;28;20214;-72
2021/07/25 10:10:11;;;;;;;5.95;5.05;;;;;;;;;;5012319;28;20190;-71
2021/07/25 10:12:38;;;;;;;8.80;5.07;;;;;;;;;;5021818;28;20189;-69
2021/07/25 10:15:16;;;;;;;5.03;4.53;;;;;;;;;;5015881;28;20276;-67
2021/07/25 10:17:43;;;;;;;7.47;4.90;;;;;;;;;;5025535;28;20270;-72
2021/07/25 10:20:11;;;;;;;7.75;5.20;;;;;;;;;;5018100;28;20193;-68
2021/07/25 10:22:38;;;;;;;7.35;5.10;;;;;;;;;;5027847;28;20181;-72
2021/07/25 10:25:06;;;;;;;7.05;5.55;;;;;;;;;;5030583;28;20193;-68
2021/07/25 10:27:32;;;;;;;8.32;5.07;;;;;;;;;;5014617;28;20359;-72
2021/07/25 10:30:07;;;;;;;5.30;4.47;;;;;;;;;;5029405;28;20715;-72
2021/07/25 10:32:33;;;;;;;5.93;4.85;;;;;;;;;;5020622;28;20673;-69
2021/07/25 10:35:03;;;;;;;5.78;5.05;;;;;;;;;;5029490;28;20178;-71
2021/07/25 10:37:30;;;;;;;6.60;4.53;;;;;;;;;;5015275;28;20245;-72
2021/07/25 10:39:57;;;;;;;6.60;4.60;;;;;;;;;;5022390;28;20183;-72
2021/07/25 10:42:25;;;;;;;7.00;4.10;;;;;;;;;;5020186;28;20198;-71
2021/07/25 10:44:51;;;;;;;5.45;3.78;;;;;;;;;;5025116;28;20189;-71
2021/07/25 10:47:27;;;;;;;5.93;4.07;;;;;;;;;;5020282;28;20701;-68
2021/07/25 10:49:59;;;;;;;7.93;4.15;;;;;;;;;;5019869;28;20293;-72
2021/07/25 10:52:25;;;;;;;5.97;5.05;;;;;;;;;;5018598;28;20277;-68
2021/07/25 10:54:50;;;;;;;7.97;5.05;;;;;;;;;;5025074;28;20624;-68
2021/07/25 10:57:17;;;;;;;6.82;3.65;;;;;;;;;;5015476;28;20182;-69
2021/07/25 10:59:55;;;;;;;5.25;4.00;;;;;;;;;;5025069;28;20272;-70
2021/07/25 11:02:26;;;;;;;4.13;3.72;;;;;;;;;;5017062;28;20676;-68
2021/07/25 11:04:55;;;;;;;4.53;4.07;;;;;;;;;;5020222;28;20658;-70
2021/07/25 11:07:23;;;;;;;4.43;3.97;;;;;;;;;;5020930;28;20214;-69
2021/07/25 11:09:55;;;;;;;6.57;3.75;;;;;;;;;;5023452;28;20178;-72
2021/07/25 11:12:20;;;;;;;5.57;4.70;;;;;;;;;;5028411;28;20615;-69
2021/07/25 11:15:31;;;;;;;7.18;3.85;;;;;;;;;;5014113;28;20274;-72
2021/07/25 11:18:01;;;;;;;4.22;3.65;;;;;;;;;;5009211;28;20227;-71
2021/07/25 11:20:58;;;;;;;6.18;3.83;;;;;;;;;;5027962;28;20196;-72
2021/07/25 11:23:23;;;;;;;5.68;3.97;;;;;;;;;;5016011;28;20190;-69
2021/07/25 11:25:53;;;;;;;6.07;3.92;;;;;;;;;;5027063;28;20236;-68
2021/07/25 11:28:38;;;;;;;5.18;4.38;;;;;;;;;;5010236;28;20190;-73
2021/07/25 11:31:04;;;;;;;4.90;4.03;;;;;;;;;;5025766;28;20174;-69
2021/07/25 11:33:41;;;;;;;6.15;4.05;;;;;;;;;;5019924;28;20265;-69
2021/07/25 11:36:08;;;;;;;8.20;4.22;;;;;;;;;;5031384;28;20182;-69
2021/07/25 11:38:34;;;;;;;4.82;4.07;;;;;;;;;;5026052;28;20245;-69
2021/07/25 11:41:00;;;;;;;4.72;3.72;;;;;;;;;;5017040;28;20546;-73
2021/07/25 11:43:26;;;;;;;4.78;4.00;;;;;;;;;;5021215;28;20189;-74
2021/07/25 11:45:51;;;;;;;10.38;4.63;;;;;;;;;;5021435;28;20190;-72
2021/07/25 11:48:21;;;;;;;6.97;4.53;;;;;;;;;;5023484;28;20193;-73
2021/07/25 11:50:46;;;;;;;6.47;4.10;;;;;;;;;;5014499;28;20252;-68
2021/07/25 11:53:12;;;;;;;7.25;4.90;;;;;;;;;;5021500;28;20198;-69
2021/07/25 11:55:38;;;;;;;7.28;4.97;;;;;;;;;;5037169;28;20241;-69
2021/07/25 11:58:10;;;;;;;5.63;4.30;;;;;;;;;;5025084;28;20235;-69
2021/07/25 12:00:36;;;;;;;6.35;4.30;;;;;;;;;;5016093;28;20218;-71
2021/07/25 12:03:01;;;;;;;6.70;4.65;;;;;;;;;;5023709;28;20272;-69
2021/07/25 12:05:27;;;;;;;6.05;4.18;;;;;;;;;;5015162;28;20182;-69
2021/07/25 12:07:53;;;;;;;7.30;4.80;;;;;;;;;;5020978;28;20237;-69
2021/07/25 12:10:29;;;;;;;6.50;4.95;;;;;;;;;;5019742;28;20606;-71
2021/07/25 12:13:06;;;;;;;4.88;4.15;;;;;;;;;;5017021;28;20201;-68
2021/07/25 12:15:32;;;;;;;8.35;5.40;;;;;;;;;;5026035;28;20181;-69
2021/07/25 12:17:57;;;;;;;7.25;5.03;;;;;;;;;;5015705;28;20174;-73
2021/07/25 12:20:29;;;;;;;6.65;4.50;;;;;;;;;;5021151;28;20319;-70
2021/07/25 12:22:58;;;;;;;5.22;4.03;;;;;;;;;;5012396;28;20198;-73
2021/07/25 12:25:24;;;;;;;7.82;4.63;;;;;;;;;;5027310;28;20190;-72
2021/07/25 12:28:09;;;;;;;5.80;4.68;;;;;;;;;;5017524;28;20206;-68
2021/07/25 12:30:45;;;;;;;7.65;4.53;;;;;;;;;;5024618;28;20726;-69
2021/07/25 12:33:16;;;;;;;6.20;4.68;;;;;;;;;;5016979;28;20189;-71
2021/07/25 12:35:42;;;;;;;5.47;4.75;;;;;;;;;;5015768;28;20337;-69
2021/07/25 12:38:15;;;;;;;6.97;4.32;;;;;;;;;;5017899;28;20268;-72
2021/07/25 12:40:55;;;;;;;5.63;4.15;;;;;;;;;;5025733;28;20190;-69
2021/07/25 12:43:22;;;;;;;5.90;4.60;;;;;;;;;;5017703;28;20235;-72
2021/07/25 12:45:49;;;;;;;8.07;4.50;;;;;;;;;;5021677;28;20273;-68
2021/07/25 12:48:21;;;;;;;7.75;5.10;;;;;;;;;;5018913;28;20279;-70
2021/07/25 12:50:57;;;;;;;6.32;4.70;;;;;;;;;;5014185;28;20194;-72
2021/07/25 12:53:33;;;;;;;4.80;3.58;;;;;;;;;;5036270;28;20239;-69
2021/07/25 12:55:59;;;;;;;5.43;4.70;;;;;;;;;;5015540;28;20230;-71
2021/07/25 12:58:31;;;;;;;6.35;4.00;;;;;;;;;;5011665;28;20190;-71
2021/07/25 13:06:08;;;;;;;5.72;3.90;;;;;;;;;;5018137;28;20260;-74
2021/07/25 13:08:33;;;;;;;5.68;3.92;;;;;;;;;;5032490;28;20201;-70
2021/07/25 13:10:59;;;;;;;5.93;4.68;;;;;;;;;;5021302;28;20202;-69
2021/07/25 13:13:25;;;;;;;4.43;4.03;;;;;;;;;;5027778;28;20868;-69
2021/07/25 13:15:51;;;;;;;6.13;4.47;;;;;;;;;;5015229;28;20190;-70
2021/07/25 13:18:16;;;;;;;6.30;4.75;;;;;;;;;;5027406;28;20217;-73
2021/07/25 13:20:42;;;;;;;5.53;4.53;;;;;;;;;;5013878;28;20217;-72
2021/07/25 13:23:07;;;;;;;7.90;4.90;;;;;;;;;;5023152;28;20186;-69
2021/07/25 13:25:32;;;;;;;7.55;4.43;;;;;;;;;;5012120;28;20682;-72
2021/07/25 13:27:58;;;;;;;11.52;4.35;;;;;;;;;;5019999;28;20210;-72
2021/07/25 13:30:23;;;;;;;8.02;4.13;;;;;;;;;;5013566;28;20274;-69
2021/07/25 13:32:48;;;;;;;6.72;4.43;;;;;;;;;;5025151;28;20208;-72
2021/07/25 13:35:14;;;;;;;5.85;4.15;;;;;;;;;;5012407;28;20495;-73
2021/07/25 13:37:39;;;;;;;4.75;4.05;;;;;;;;;;5034488;28;20189;-70
2021/07/25 13:40:05;;;;;;;4.88;4.32;;;;;;;;;;5009439;28;20190;-69
2021/07/25 13:42:30;;;;;;;5.75;4.40;;;;;;;;;;5033274;28;20185;-69
2021/07/25 13:44:59;;;;;;;5.57;3.75;;;;;;;;;;5020058;28;20641;-74
2021/07/25 13:47:25;;;;;;;6.38;4.05;;;;;;;;;;5013560;28;20194;-73
2021/07/25 13:49:50;;;;;;;7.93;4.63;;;;;;;;;;5024424;28;20200;-73
2021/07/25 13:52:16;;;;;;;5.13;3.88;;;;;;;;;;5023116;28;20227;-69
2021/07/25 13:54:41;;;;;;;4.57;3.55;;;;;;;;;;5023229;28;20637;-71
2021/07/25 13:57:06;;;;;;;6.78;3.60;;;;;;;;;;5021375;28;20221;-74
2021/07/25 13:59:32;;;;;;;6.90;3.75;;;;;;;;;;5025899;28;20205;-73
2021/07/25 14:01:57;;;;;;;4.32;3.47;;;;;;;;;;5025097;28;20178;-74
2021/07/25 14:04:23;;;;;;;6.55;3.40;;;;;;;;;;5029988;28;20749;-71
2021/07/25 14:06:48;;;;;;;5.43;3.80;;;;;;;;;;5021459;28;20201;-71
2021/07/25 14:09:14;;;;;;;6.13;3.05;;;;;;;;;;5026410;28;20217;-69
2021/07/25 14:11:40;;;;;;;5.05;3.78;;;;;;;;;;5021781;28;20174;-69
2021/07/25 14:14:05;;;;;;;4.78;3.30;;;;;;;;;;5024149;28;20265;-71
2021/07/25 14:16:31;;;;;;;6.22;3.80;;;;;;;;;;5027828;28;20277;-68
2021/07/25 14:18:56;;;;;;;7.22;3.58;;;;;;;;;;5018604;28;20182;-69
2021/07/25 14:21:21;;;;;;;4.20;3.40;;;;;;;;;;5025685;28;20281;-69
2021/07/25 14:23:48;;;;;;;5.72;3.55;;;;;;;;;;5017125;28;20188;-71
2021/07/25 14:26:13;;;;;;;6.00;3.28;;;;;;;;;;5020341;28;20289;-73
2021/07/25 14:28:40;;;;;;;5.20;3.60;;;;;;;;;;5020486;28;20276;-70
2021/07/25 14:31:05;;;;;;;4.68;3.17;;;;;;;;;;5023879;28;20186;-71
2021/07/25 14:33:37;;;;;;;4.97;3.38;;;;;;;;;;5018054;28;20239;-73
2021/07/25 14:36:12;;;;;;;5.15;3.80;;;;;;;;;;5031786;28;20244;-71